sensor_id;sensor_type;location;lat;lon;timestamp;temperature;humidity
65995;HTU21D;52764;51.036;5.852;2022-09-17T00:01:17;13.19;77.83
65995;HTU21D;52764;51.036;5.852;2022-09-17T00:03:48;13.18;77.76
65995;HTU21D;52764;51.036;5.852;2022-09-17T00:06:14;13.20;77.76
65995;HTU21D;52764;51.036;5.852;2022-09-17T00:08:40;13.21;77.66
65995;HTU21D;52764;51.036;5.852;2022-09-17T00:11:13;13.20;77.59
65995;HTU21D;52764;51.036;5.852;2022-09-17T00:13:40;12.85;75.35
65995;HTU21D;52764;51.036;5.852;2022-09-17T00:16:06;13.18;77.78
65995;HTU21D;52764;51.036;5.852;2022-09-17T00:18:32;-14.72;77.66
65995;HTU21D;52764;51.036;5.852;2022-09-17T00:21:02;13.18;77.75
65995;HTU21D;52764;51.036;5.852;2022-09-17T00:23:28;13.22;75.36
65995;HTU21D;52764;51.036;5.852;2022-09-17T00:25:54;13.20;77.48
65995;HTU21D;52764;51.036;5.852;2022-09-17T00:28:19;13.27;77.27
65995;HTU21D;52764;51.036;5.852;2022-09-17T00:30:45;13.24;77.45
65995;HTU21D;52764;51.036;5.852;2022-09-17T00:33:13;13.27;77.31
65995;HTU21D;52764;51.036;5.852;2022-09-17T00:35:39;13.30;77.20
65995;HTU21D;52764;51.036;5.852;2022-09-17T00:38:05;13.23;77.41
65995;HTU21D;52764;51.036;5.852;2022-09-17T00:40:31;-14.57;77.47
65995;HTU21D;52764;51.036;5.852;2022-09-17T00:42:57;12.87;77.59
65995;HTU21D;52764;51.036;5.852;2022-09-17T00:45:24;13.20;77.63
65995;HTU21D;52764;51.036;5.852;2022-09-17T00:47:59;13.21;77.56
65995;HTU21D;52764;51.036;5.852;2022-09-17T00:50:49;13.27;77.35
65995;HTU21D;52764;51.036;5.852;2022-09-17T00:53:18;13.29;77.10
65995;HTU21D;52764;51.036;5.852;2022-09-17T00:56:02;-26.03;76.92
65995;HTU21D;52764;51.036;5.852;2022-09-17T00:58:32;13.22;77.08
65995;HTU21D;52764;51.036;5.852;2022-09-17T01:00:59;13.21;77.13
65995;HTU21D;52764;51.036;5.852;2022-09-17T01:03:25;13.20;77.21
65995;HTU21D;52764;51.036;5.852;2022-09-17T01:11:05;13.15;77.26
65995;HTU21D;52764;51.036;5.852;2022-09-17T01:13:45;13.12;73.12
65995;HTU21D;52764;51.036;5.852;2022-09-17T01:16:45;13.08;77.30
65995;HTU21D;52764;51.036;5.852;2022-09-17T01:22:08;13.08;74.40
65995;HTU21D;52764;51.036;5.852;2022-09-17T01:30:34;13.05;75.38
65995;HTU21D;52764;51.036;5.852;2022-09-17T01:33:14;13.04;77.81
65995;HTU21D;52764;51.036;5.852;2022-09-17T01:44:14;13.05;65.23
65995;HTU21D;52764;51.036;5.852;2022-09-17T01:46:52;13.08;78.14
65995;HTU21D;52764;51.036;5.852;2022-09-17T01:49:21;13.05;78.24
65995;HTU21D;52764;51.036;5.852;2022-09-17T01:51:50;13.08;78.25
65995;HTU21D;52764;51.036;5.852;2022-09-17T01:54:27;13.12;78.22
65995;HTU21D;52764;51.036;5.852;2022-09-17T01:57:18;13.15;78.07
65995;HTU21D;52764;51.036;5.852;2022-09-17T02:00:13;13.17;78.01
65995;HTU21D;52764;51.036;5.852;2022-09-17T02:02:59;13.21;77.79
65995;HTU21D;52764;51.036;5.852;2022-09-17T02:08:59;-2.96;77.34
65995;HTU21D;52764;51.036;5.852;2022-09-17T02:11:26;13.22;77.47
65995;HTU21D;52764;51.036;5.852;2022-09-17T02:14:14;13.20;77.53
65995;HTU21D;52764;51.036;5.852;2022-09-17T02:16:51;13.22;77.60
65995;HTU21D;52764;51.036;5.852;2022-09-17T02:19:26;-14.55;77.34
65995;HTU21D;52764;51.036;5.852;2022-09-17T02:22:05;13.23;77.26
65995;HTU21D;52764;51.036;5.852;2022-09-17T02:30:15;13.32;76.94
65995;HTU21D;52764;51.036;5.852;2022-09-17T02:32:41;13.36;76.86
65995;HTU21D;52764;51.036;5.852;2022-09-17T02:35:10;13.12;73.61
65995;HTU21D;52764;51.036;5.852;2022-09-17T02:37:39;13.38;76.65
65995;HTU21D;52764;51.036;5.852;2022-09-17T02:40:06;13.39;76.79
65995;HTU21D;52764;51.036;5.852;2022-09-17T02:53:36;-14.12;65.56
65995;HTU21D;52764;51.036;5.852;2022-09-17T03:02:15;13.47;76.64
65995;HTU21D;52764;51.036;5.852;2022-09-17T03:04:45;13.46;76.57
65995;HTU21D;52764;51.036;5.852;2022-09-17T03:07:12;13.50;76.50
65995;HTU21D;52764;51.036;5.852;2022-09-17T03:09:39;13.48;76.50
65995;HTU21D;52764;51.036;5.852;2022-09-17T03:12:09;13.50;76.50
65995;HTU21D;52764;51.036;5.852;2022-09-17T03:14:35;13.51;76.37
65995;HTU21D;52764;51.036;5.852;2022-09-17T03:17:01;13.50;76.35
65995;HTU21D;52764;51.036;5.852;2022-09-17T03:19:26;13.52;76.38
65995;HTU21D;52764;51.036;5.852;2022-09-17T03:21:52;13.53;76.24
65995;HTU21D;52764;51.036;5.852;2022-09-17T03:24:18;13.54;76.18
65995;HTU21D;52764;51.036;5.852;2022-09-17T03:26:44;13.55;76.09
65995;HTU21D;52764;51.036;5.852;2022-09-17T03:29:12;13.55;76.10
65995;HTU21D;52764;51.036;5.852;2022-09-17T03:31:38;13.54;76.11
65995;HTU21D;52764;51.036;5.852;2022-09-17T03:34:03;13.51;76.20
65995;HTU21D;52764;51.036;5.852;2022-09-17T03:36:30;13.52;76.31
65995;HTU21D;52764;51.036;5.852;2022-09-17T03:38:56;13.51;76.64
65995;HTU21D;52764;51.036;5.852;2022-09-17T03:41:22;13.51;76.50
65995;HTU21D;52764;51.036;5.852;2022-09-17T03:43:48;13.52;76.37
65995;HTU21D;52764;51.036;5.852;2022-09-17T03:46:14;13.53;76.36
65995;HTU21D;52764;51.036;5.852;2022-09-17T03:48:40;13.53;76.32
65995;HTU21D;52764;51.036;5.852;2022-09-17T03:51:06;13.54;64.88
65995;HTU21D;52764;51.036;5.852;2022-09-17T03:53:32;13.51;76.44
65995;HTU21D;52764;51.036;5.852;2022-09-17T03:55:59;13.55;76.10
65995;HTU21D;52764;51.036;5.852;2022-09-17T03:58:26;13.52;76.02
65995;HTU21D;52764;51.036;5.852;2022-09-17T04:00:52;13.47;76.34
65995;HTU21D;52764;51.036;5.852;2022-09-17T04:03:20;13.41;76.59
65995;HTU21D;52764;51.036;5.852;2022-09-17T04:05:46;13.37;76.88
65995;HTU21D;52764;51.036;5.852;2022-09-17T04:08:11;41.00;66.40
65995;HTU21D;52764;51.036;5.852;2022-09-17T04:10:37;-14.27;77.15
65995;HTU21D;52764;51.036;5.852;2022-09-17T04:13:03;13.38;77.04
65995;HTU21D;52764;51.036;5.852;2022-09-17T04:15:28;13.37;77.08
65995;HTU21D;52764;51.036;5.852;2022-09-17T04:17:55;-14.31;68.21
65995;HTU21D;52764;51.036;5.852;2022-09-17T04:20:24;7.16;77.05
65995;HTU21D;52764;51.036;5.852;2022-09-17T04:22:51;-25.96;77.25
65995;HTU21D;52764;51.036;5.852;2022-09-17T04:25:17;13.25;76.96
65995;HTU21D;52764;51.036;5.852;2022-09-17T04:27:44;13.22;74.98
65995;HTU21D;52764;51.036;5.852;2022-09-17T04:30:10;-14.52;77.80
65995;HTU21D;52764;51.036;5.852;2022-09-17T04:32:36;13.25;77.90
65995;HTU21D;52764;51.036;5.852;2022-09-17T04:35:03;13.29;77.88
65995;HTU21D;52764;51.036;5.852;2022-09-17T04:37:29;13.27;77.86
65995;HTU21D;52764;51.036;5.852;2022-09-17T04:39:55;6.90;75.61
65995;HTU21D;52764;51.036;5.852;2022-09-17T04:42:21;7.07;77.52
65995;HTU21D;52764;51.036;5.852;2022-09-17T04:44:46;13.33;77.45
65995;HTU21D;52764;51.036;5.852;2022-09-17T04:47:12;7.25;76.77
65995;HTU21D;52764;51.036;5.852;2022-09-17T04:49:38;13.40;76.81
65995;HTU21D;52764;51.036;5.852;2022-09-17T04:52:04;13.43;77.47
65995;HTU21D;52764;51.036;5.852;2022-09-17T04:54:30;13.44;76.82
65995;HTU21D;52764;51.036;5.852;2022-09-17T04:56:56;7.46;77.37
65995;HTU21D;52764;51.036;5.852;2022-09-17T04:59:22;13.36;77.39
65995;HTU21D;52764;51.036;5.852;2022-09-17T05:01:48;13.31;77.39
65995;HTU21D;52764;51.036;5.852;2022-09-17T05:04:14;13.23;77.70
65995;HTU21D;52764;51.036;5.852;2022-09-17T05:06:40;13.18;77.69
65995;HTU21D;52764;51.036;5.852;2022-09-17T05:09:06;13.12;77.85
65995;HTU21D;52764;51.036;5.852;2022-09-17T05:11:32;12.95;78.01
65995;HTU21D;52764;51.036;5.852;2022-09-17T05:13:57;13.00;76.19
65995;HTU21D;52764;51.036;5.852;2022-09-17T05:16:23;13.01;78.31
65995;HTU21D;52764;51.036;5.852;2022-09-17T05:18:49;13.01;78.24
65995;HTU21D;52764;51.036;5.852;2022-09-17T05:21:17;13.03;78.05
65995;HTU21D;52764;51.036;5.852;2022-09-17T05:23:43;13.06;78.03
65995;HTU21D;52764;51.036;5.852;2022-09-17T05:26:09;13.06;77.87
65995;HTU21D;52764;51.036;5.852;2022-09-17T05:28:34;13.06;77.67
65995;HTU21D;52764;51.036;5.852;2022-09-17T05:31:01;13.06;79.67
65995;HTU21D;52764;51.036;5.852;2022-09-17T05:33:27;12.55;74.22
65995;HTU21D;52764;51.036;5.852;2022-09-17T05:35:53;13.05;75.20
65995;HTU21D;52764;51.036;5.852;2022-09-17T05:38:20;13.11;77.55
65995;HTU21D;52764;51.036;5.852;2022-09-17T05:40:46;13.15;77.53
65995;HTU21D;52764;51.036;5.852;2022-09-17T05:43:14;13.17;67.44
65995;HTU21D;52764;51.036;5.852;2022-09-17T05:45:40;13.23;77.57
65995;HTU21D;52764;51.036;5.852;2022-09-17T05:48:11;13.29;77.47
65995;HTU21D;52764;51.036;5.852;2022-09-17T05:50:36;13.34;77.40
65995;HTU21D;52764;51.036;5.852;2022-09-17T05:53:09;13.37;77.36
65995;HTU21D;52764;51.036;5.852;2022-09-17T05:55:35;-14.22;74.83
65995;HTU21D;52764;51.036;5.852;2022-09-17T05:58:09;13.30;75.50
65995;HTU21D;52764;51.036;5.852;2022-09-17T06:00:36;13.17;78.45
65995;HTU21D;52764;51.036;5.852;2022-09-17T06:03:01;13.08;79.22
65995;HTU21D;52764;51.036;5.852;2022-09-17T06:05:27;13.02;79.38
65995;HTU21D;52764;51.036;5.852;2022-09-17T06:07:53;13.12;79.88
65995;HTU21D;52764;51.036;5.852;2022-09-17T06:10:18;12.59;72.17
65995;HTU21D;52764;51.036;5.852;2022-09-17T06:12:44;13.14;80.11
65995;HTU21D;52764;51.036;5.852;2022-09-17T06:15:10;12.91;80.36
65995;HTU21D;52764;51.036;5.852;2022-09-17T06:17:39;13.36;80.36
65995;HTU21D;52764;51.036;5.852;2022-09-17T06:20:05;13.61;80.87
65995;HTU21D;52764;51.036;5.852;2022-09-17T06:22:32;13.99;80.68
65995;HTU21D;52764;51.036;5.852;2022-09-17T06:24:57;10.46;80.52
65995;HTU21D;52764;51.036;5.852;2022-09-17T06:27:32;15.54;78.04
65995;HTU21D;52764;51.036;5.852;2022-09-17T06:29:58;-8.95;70.10
65995;HTU21D;52764;51.036;5.852;2022-09-17T06:32:23;16.59;74.40
65995;HTU21D;52764;51.036;5.852;2022-09-17T06:34:49;17.04;71.64
65995;HTU21D;52764;51.036;5.852;2022-09-17T06:37:15;-9.61;67.46
65995;HTU21D;52764;51.036;5.852;2022-09-17T06:39:41;16.13;68.30
65995;HTU21D;52764;51.036;5.852;2022-09-17T06:42:06;-5.41;67.10
65995;HTU21D;52764;51.036;5.852;2022-09-17T06:44:32;17.77;65.86
65995;HTU21D;52764;51.036;5.852;2022-09-17T06:46:58;17.61;59.35
65995;HTU21D;52764;51.036;5.852;2022-09-17T06:49:23;17.69;66.43
65995;HTU21D;52764;51.036;5.852;2022-09-17T06:51:49;16.41;64.97
65995;HTU21D;52764;51.036;5.852;2022-09-17T06:54:15;17.64;64.63
65995;HTU21D;52764;51.036;5.852;2022-09-17T06:56:41;17.50;64.57
65995;HTU21D;52764;51.036;5.852;2022-09-17T06:59:06;17.52;65.30
65995;HTU21D;52764;51.036;5.852;2022-09-17T07:01:32;17.74;73.22
65995;HTU21D;52764;51.036;5.852;2022-09-17T07:03:57;-6.87;71.74
65995;HTU21D;52764;51.036;5.852;2022-09-17T07:06:23;-4.44;63.35
65995;HTU21D;52764;51.036;5.852;2022-09-17T07:08:49;18.56;62.15
65995;HTU21D;52764;51.036;5.852;2022-09-17T07:11:15;18.59;66.59
65995;HTU21D;52764;51.036;5.852;2022-09-17T07:13:41;18.54;60.83
65995;HTU21D;52764;51.036;5.852;2022-09-17T07:16:06;18.25;60.70
65995;HTU21D;52764;51.036;5.852;2022-09-17T07:18:33;17.89;61.09
65995;HTU21D;52764;51.036;5.852;2022-09-17T07:21:02;17.64;67.62
65995;HTU21D;52764;51.036;5.852;2022-09-17T07:23:30;17.36;69.54
65995;HTU21D;52764;51.036;5.852;2022-09-17T07:25:58;17.00;63.95
65995;HTU21D;52764;51.036;5.852;2022-09-17T07:28:25;16.79;65.06
65995;HTU21D;52764;51.036;5.852;2022-09-17T07:30:52;15.16;62.81
65995;HTU21D;52764;51.036;5.852;2022-09-17T07:33:19;17.52;65.33
65995;HTU21D;52764;51.036;5.852;2022-09-17T07:36:10;-4.49;63.11
65995;HTU21D;52764;51.036;5.852;2022-09-17T07:38:36;18.96;61.38
65995;HTU21D;52764;51.036;5.852;2022-09-17T07:41:10;19.67;69.49
65995;HTU21D;52764;51.036;5.852;2022-09-17T07:43:40;20.30;57.78
65995;HTU21D;52764;51.036;5.852;2022-09-17T07:46:09;0.81;55.62
65995;HTU21D;52764;51.036;5.852;2022-09-17T07:48:40;21.40;54.30
65995;HTU21D;52764;51.036;5.852;2022-09-17T07:51:23;21.65;52.72
65995;HTU21D;52764;51.036;5.852;2022-09-17T07:53:53;21.37;52.24
65995;HTU21D;52764;51.036;5.852;2022-09-17T07:56:19;21.38;51.95
65995;HTU21D;52764;51.036;5.852;2022-09-17T07:58:45;21.63;52.15
65995;HTU21D;52764;51.036;5.852;2022-09-17T08:01:13;21.68;49.37
65995;HTU21D;52764;51.036;5.852;2022-09-17T08:03:42;19.73;49.38
65995;HTU21D;52764;51.036;5.852;2022-09-17T08:06:10;21.99;50.30
65995;HTU21D;52764;51.036;5.852;2022-09-17T08:08:37;21.92;51.54
65995;HTU21D;52764;51.036;5.852;2022-09-17T08:11:09;7.63;43.00
65995;HTU21D;52764;51.036;5.852;2022-09-17T08:13:36;22.61;43.06
65995;HTU21D;52764;51.036;5.852;2022-09-17T08:16:08;21.58;50.85
65995;HTU21D;52764;51.036;5.852;2022-09-17T08:18:34;22.84;51.26
65995;HTU21D;52764;51.036;5.852;2022-09-17T08:21:02;0.66;50.47
65995;HTU21D;52764;51.036;5.852;2022-09-17T08:23:29;20.84;51.98
65995;HTU21D;52764;51.036;5.852;2022-09-17T08:25:57;3.82;51.97
65995;HTU21D;52764;51.036;5.852;2022-09-17T08:28:25;20.46;52.25
65995;HTU21D;52764;51.036;5.852;2022-09-17T08:30:53;20.10;52.96
65995;HTU21D;52764;51.036;5.852;2022-09-17T08:33:20;20.11;54.03
65995;HTU21D;52764;51.036;5.852;2022-09-17T08:35:53;19.95;50.27
65995;HTU21D;52764;51.036;5.852;2022-09-17T08:38:20;19.81;53.66
65995;HTU21D;52764;51.036;5.852;2022-09-17T08:49:34;19.25;54.58
65995;HTU21D;52764;51.036;5.852;2022-09-17T09:01:29;19.43;55.40
65995;HTU21D;52764;51.036;5.852;2022-09-17T09:07:10;18.97;55.42
65995;HTU21D;52764;51.036;5.852;2022-09-17T09:09:50;18.96;55.61
65995;HTU21D;52764;51.036;5.852;2022-09-17T09:12:24;19.06;55.29
65995;HTU21D;52764;51.036;5.852;2022-09-17T09:17:38;-2.62;54.11
65995;HTU21D;52764;51.036;5.852;2022-09-17T09:20:17;20.85;54.30
65995;HTU21D;52764;51.036;5.852;2022-09-17T09:22:51;19.37;53.48
65995;HTU21D;52764;51.036;5.852;2022-09-17T09:25:25;-2.22;53.13
65995;HTU21D;52764;51.036;5.852;2022-09-17T09:28:07;20.22;53.62
65995;HTU21D;52764;51.036;5.852;2022-09-17T09:30:57;19.51;53.71
65995;HTU21D;52764;51.036;5.852;2022-09-17T09:33:34;19.45;54.50
65995;HTU21D;52764;51.036;5.852;2022-09-17T09:36:06;19.84;53.72
65995;HTU21D;52764;51.036;5.852;2022-09-17T09:38:52;-2.15;55.26
65995;HTU21D;52764;51.036;5.852;2022-09-17T09:41:50;19.47;55.94
65995;HTU21D;52764;51.036;5.852;2022-09-17T09:44:18;19.46;55.08
65995;HTU21D;52764;51.036;5.852;2022-09-17T09:50:36;19.11;55.82
65995;HTU21D;52764;51.036;5.852;2022-09-17T09:53:21;18.96;54.18
65995;HTU21D;52764;51.036;5.852;2022-09-17T09:58:37;18.68;56.36
65995;HTU21D;52764;51.036;5.852;2022-09-17T10:01:13;18.72;57.06
65995;HTU21D;52764;51.036;5.852;2022-09-17T10:03:41;18.62;56.91
65995;HTU21D;52764;51.036;5.852;2022-09-17T10:06:12;18.96;57.21
65995;HTU21D;52764;51.036;5.852;2022-09-17T10:09:25;19.20;56.68
65995;HTU21D;52764;51.036;5.852;2022-09-17T10:11:28;19.06;55.74
65995;HTU21D;52764;51.036;5.852;2022-09-17T10:14:26;19.53;54.57
65995;HTU21D;52764;51.036;5.852;2022-09-17T10:17:19;20.69;54.22
65995;HTU21D;52764;51.036;5.852;2022-09-17T10:20:12;20.25;53.38
65995;HTU21D;52764;51.036;5.852;2022-09-17T10:22:44;19.59;53.81
65995;HTU21D;52764;51.036;5.852;2022-09-17T10:25:29;19.58;52.98
65995;HTU21D;52764;51.036;5.852;2022-09-17T10:27:59;20.29;52.90
65995;HTU21D;52764;51.036;5.852;2022-09-17T10:30:26;19.83;50.65
65995;HTU21D;52764;51.036;5.852;2022-09-17T10:33:13;21.43;51.23
65995;HTU21D;52764;51.036;5.852;2022-09-17T10:35:40;19.87;43.24
65995;HTU21D;52764;51.036;5.852;2022-09-17T10:38:44;20.00;49.81
65995;HTU21D;52764;51.036;5.852;2022-09-17T10:41:13;20.17;49.65
65995;HTU21D;52764;51.036;5.852;2022-09-17T10:43:40;-0.51;49.43
65995;HTU21D;52764;51.036;5.852;2022-09-17T10:46:14;-0.37;49.37
65995;HTU21D;52764;51.036;5.852;2022-09-17T10:48:55;20.39;49.11
65995;HTU21D;52764;51.036;5.852;2022-09-17T10:51:24;20.39;48.47
65995;HTU21D;52764;51.036;5.852;2022-09-17T10:56:44;20.05;48.86
65995;HTU21D;52764;51.036;5.852;2022-09-17T11:00:20;20.01;49.66
65995;HTU21D;52764;51.036;5.852;2022-09-17T11:02:29;20.09;49.54
65995;HTU21D;52764;51.036;5.852;2022-09-17T11:11:03;20.34;48.24
65995;HTU21D;52764;51.036;5.852;2022-09-17T11:22:25;18.27;56.88
65995;HTU21D;52764;51.036;5.852;2022-09-17T11:33:38;16.56;64.48
65995;HTU21D;52764;51.036;5.852;2022-09-17T11:36:14;16.66;66.44
65995;HTU21D;52764;51.036;5.852;2022-09-17T11:38:48;16.81;67.07
65995;HTU21D;52764;51.036;5.852;2022-09-17T11:41:26;16.89;64.97
65995;HTU21D;52764;51.036;5.852;2022-09-17T11:44:24;16.84;66.65
65995;HTU21D;52764;51.036;5.852;2022-09-17T11:52:38;17.02;65.08
65995;HTU21D;52764;51.036;5.852;2022-09-17T11:55:10;15.31;63.74
65995;HTU21D;52764;51.036;5.852;2022-09-17T11:57:43;16.90;62.41
65995;HTU21D;52764;51.036;5.852;2022-09-17T12:00:18;-9.82;62.72
65995;HTU21D;52764;51.036;5.852;2022-09-17T12:08:25;17.20;64.50
65995;HTU21D;52764;51.036;5.852;2022-09-17T12:11:06;-8.43;66.23
65995;HTU21D;52764;51.036;5.852;2022-09-17T12:13:49;12.91;64.50
65995;HTU21D;52764;51.036;5.852;2022-09-17T12:21:38;11.88;65.33
65995;HTU21D;52764;51.036;5.852;2022-09-17T12:24:23;11.49;69.21
65995;HTU21D;52764;51.036;5.852;2022-09-17T12:26:54;11.49;69.77
65995;HTU21D;52764;51.036;5.852;2022-09-17T12:41:44;15.49;68.17
65995;HTU21D;52764;51.036;5.852;2022-09-17T12:57:59;15.90;70.23
65995;HTU21D;52764;51.036;5.852;2022-09-17T13:00:28;16.05;69.29
65995;HTU21D;52764;51.036;5.852;2022-09-17T13:03:23;16.15;68.78
65995;HTU21D;52764;51.036;5.852;2022-09-17T13:07:06;16.16;68.06
65995;HTU21D;52764;51.036;5.852;2022-09-17T13:20:17;15.92;66.61
65995;HTU21D;52764;51.036;5.852;2022-09-17T13:22:49;12.85;66.37
65995;HTU21D;52764;51.036;5.852;2022-09-17T13:25:18;16.03;66.84
65995;HTU21D;52764;51.036;5.852;2022-09-17T13:27:46;16.12;66.98
65995;HTU21D;52764;51.036;5.852;2022-09-17T13:30:15;16.24;78.01
65995;HTU21D;52764;51.036;5.852;2022-09-17T13:32:47;16.33;66.81
65995;HTU21D;52764;51.036;5.852;2022-09-17T13:37:42;16.61;67.04
65995;HTU21D;52764;51.036;5.852;2022-09-17T13:40:24;16.73;78.43
65995;HTU21D;52764;51.036;5.852;2022-09-17T13:43:13;16.79;67.05
65995;HTU21D;52764;51.036;5.852;2022-09-17T13:48:28;16.89;66.13
65995;HTU21D;52764;51.036;5.852;2022-09-17T13:50:54;17.63;66.14
65995;HTU21D;52764;51.036;5.852;2022-09-17T13:53:24;16.39;65.78
65995;HTU21D;52764;51.036;5.852;2022-09-17T13:55:54;17.20;64.78
65995;HTU21D;52764;51.036;5.852;2022-09-17T13:58:33;17.25;64.52
65995;HTU21D;52764;51.036;5.852;2022-09-17T14:01:11;17.35;64.89
65995;HTU21D;52764;51.036;5.852;2022-09-17T14:19:16;-7.42;61.49
65995;HTU21D;52764;51.036;5.852;2022-09-17T14:24:45;17.95;59.83
65995;HTU21D;52764;51.036;5.852;2022-09-17T14:27:45;17.97;59.16
65995;HTU21D;52764;51.036;5.852;2022-09-17T14:40:56;17.67;55.85
65995;HTU21D;52764;51.036;5.852;2022-09-17T14:46:26;17.66;54.66
65995;HTU21D;52764;51.036;5.852;2022-09-17T14:48:52;17.69;53.83
65995;HTU21D;52764;51.036;5.852;2022-09-17T14:56:33;17.78;52.14
65995;HTU21D;52764;51.036;5.852;2022-09-17T14:59:01;17.79;51.05
65995;HTU21D;52764;51.036;5.852;2022-09-17T15:01:29;17.81;51.85
65995;HTU21D;52764;51.036;5.852;2022-09-17T15:06:40;17.97;50.17
65995;HTU21D;52764;51.036;5.852;2022-09-17T15:09:23;18.03;49.07
65995;HTU21D;52764;51.036;5.852;2022-09-17T15:11:55;-4.89;48.13
65995;HTU21D;52764;51.036;5.852;2022-09-17T15:14:28;18.10;47.73
65995;HTU21D;52764;51.036;5.852;2022-09-17T15:16:57;18.13;47.69
65995;HTU21D;52764;51.036;5.852;2022-09-17T15:19:29;18.15;47.47
65995;HTU21D;52764;51.036;5.852;2022-09-17T15:22:01;18.19;47.17
65995;HTU21D;52764;51.036;5.852;2022-09-17T15:32:30;18.33;49.55
65995;HTU21D;52764;51.036;5.852;2022-09-17T15:37:51;18.53;49.17
65995;HTU21D;52764;51.036;5.852;2022-09-17T15:40:27;18.44;49.02
65995;HTU21D;52764;51.036;5.852;2022-09-17T15:43:11;18.36;49.67
65995;HTU21D;52764;51.036;5.852;2022-09-17T15:45:39;18.38;49.95
65995;HTU21D;52764;51.036;5.852;2022-09-17T15:51:00;18.20;50.60
65995;HTU21D;52764;51.036;5.852;2022-09-17T15:53:30;18.08;50.91
65995;HTU21D;52764;51.036;5.852;2022-09-17T16:09:01;17.15;50.84
65995;HTU21D;52764;51.036;5.852;2022-09-17T16:11:31;15.16;50.98
65995;HTU21D;52764;51.036;5.852;2022-09-17T16:13:59;17.10;51.66
65995;HTU21D;52764;51.036;5.852;2022-09-17T16:16:32;17.14;51.94
65995;HTU21D;52764;51.036;5.852;2022-09-17T16:18:58;17.24;51.56
65995;HTU21D;52764;51.036;5.852;2022-09-17T16:21:24;17.02;51.98
65995;HTU21D;52764;51.036;5.852;2022-09-17T16:23:50;17.02;52.58
65995;HTU21D;52764;51.036;5.852;2022-09-17T16:26:28;16.95;52.42
65995;HTU21D;52764;51.036;5.852;2022-09-17T16:29:00;16.93;49.90
65995;HTU21D;52764;51.036;5.852;2022-09-17T16:31:27;17.00;54.20
65995;HTU21D;52764;51.036;5.852;2022-09-17T16:33:53;-11.07;50.88
65995;HTU21D;52764;51.036;5.852;2022-09-17T16:36:20;17.04;53.72
65995;HTU21D;52764;51.036;5.852;2022-09-17T16:38:45;17.02;50.40
65995;HTU21D;52764;51.036;5.852;2022-09-17T16:41:11;16.98;53.16
65995;HTU21D;52764;51.036;5.852;2022-09-17T16:43:37;16.88;52.95
65995;HTU21D;52764;51.036;5.852;2022-09-17T16:46:09;16.80;53.30
65995;HTU21D;52764;51.036;5.852;2022-09-17T16:48:36;16.79;53.56
65995;HTU21D;52764;51.036;5.852;2022-09-17T16:51:12;16.73;53.15
65995;HTU21D;52764;51.036;5.852;2022-09-17T16:53:38;17.11;54.15
65995;HTU21D;52764;51.036;5.852;2022-09-17T16:56:13;16.65;54.49
65995;HTU21D;52764;51.036;5.852;2022-09-17T16:58:39;16.63;54.82
65995;HTU21D;52764;51.036;5.852;2022-09-17T17:01:13;16.57;55.21
65995;HTU21D;52764;51.036;5.852;2022-09-17T17:03:40;14.05;55.96
65995;HTU21D;52764;51.036;5.852;2022-09-17T17:06:13;16.56;56.44
65995;HTU21D;52764;51.036;5.852;2022-09-17T17:08:39;16.54;56.51
65995;HTU21D;52764;51.036;5.852;2022-09-17T17:11:05;16.50;56.52
65995;HTU21D;52764;51.036;5.852;2022-09-17T17:13:30;-8.20;57.30
65995;HTU21D;52764;51.036;5.852;2022-09-17T17:15:56;16.35;57.42
65995;HTU21D;52764;51.036;5.852;2022-09-17T17:18:22;16.32;57.83
65995;HTU21D;52764;51.036;5.852;2022-09-17T17:20:49;16.31;57.96
65995;HTU21D;52764;51.036;5.852;2022-09-17T17:23:16;16.24;58.38
65995;HTU21D;52764;51.036;5.852;2022-09-17T17:25:41;16.16;58.91
65995;HTU21D;52764;51.036;5.852;2022-09-17T17:28:07;16.11;59.42
65995;HTU21D;52764;51.036;5.852;2022-09-17T17:30:33;16.05;59.90
65995;HTU21D;52764;51.036;5.852;2022-09-17T17:32:59;16.00;60.31
65995;HTU21D;52764;51.036;5.852;2022-09-17T17:35:25;15.98;60.32
65995;HTU21D;52764;51.036;5.852;2022-09-17T17:37:51;-9.18;60.93
65995;HTU21D;52764;51.036;5.852;2022-09-17T17:40:17;15.48;61.04
65995;HTU21D;52764;51.036;5.852;2022-09-17T17:42:43;15.90;62.29
65995;HTU21D;52764;51.036;5.852;2022-09-17T17:45:11;15.89;61.60
65995;HTU21D;52764;51.036;5.852;2022-09-17T17:47:38;15.91;61.65
65995;HTU21D;52764;51.036;5.852;2022-09-17T17:50:04;15.95;61.70
65995;HTU21D;52764;51.036;5.852;2022-09-17T17:52:30;15.97;61.67
65995;HTU21D;52764;51.036;5.852;2022-09-17T17:54:56;15.99;61.41
65995;HTU21D;52764;51.036;5.852;2022-09-17T17:57:22;15.78;61.34
65995;HTU21D;52764;51.036;5.852;2022-09-17T17:59:47;16.11;61.05
65995;HTU21D;52764;51.036;5.852;2022-09-17T18:02:13;16.15;60.94
65995;HTU21D;52764;51.036;5.852;2022-09-17T18:04:39;16.18;60.64
65995;HTU21D;52764;51.036;5.852;2022-09-17T18:07:04;16.19;60.52
65995;HTU21D;52764;51.036;5.852;2022-09-17T18:09:30;16.20;60.78
65995;HTU21D;52764;51.036;5.852;2022-09-17T18:11:56;16.22;60.67
65995;HTU21D;52764;51.036;5.852;2022-09-17T18:14:22;16.28;60.80
65995;HTU21D;52764;51.036;5.852;2022-09-17T18:16:47;16.31;60.73
65995;HTU21D;52764;51.036;5.852;2022-09-17T18:19:13;13.58;60.90
65995;HTU21D;52764;51.036;5.852;2022-09-17T18:21:39;16.33;60.76
65995;HTU21D;52764;51.036;5.852;2022-09-17T18:24:05;16.32;60.85
65995;HTU21D;52764;51.036;5.852;2022-09-17T18:26:31;16.30;60.55
65995;HTU21D;52764;51.036;5.852;2022-09-17T18:28:59;16.32;60.98
65995;HTU21D;52764;51.036;5.852;2022-09-17T18:31:30;13.58;61.30
65995;HTU21D;52764;51.036;5.852;2022-09-17T18:34:05;16.29;61.54
65995;HTU21D;52764;51.036;5.852;2022-09-17T18:36:33;16.30;61.57
65995;HTU21D;52764;51.036;5.852;2022-09-17T18:39:02;16.28;61.58
65995;HTU21D;52764;51.036;5.852;2022-09-17T18:41:35;16.29;61.62
65995;HTU21D;52764;51.036;5.852;2022-09-17T18:44:09;16.24;61.66
65995;HTU21D;52764;51.036;5.852;2022-09-17T18:46:36;16.18;61.93
65995;HTU21D;52764;51.036;5.852;2022-09-17T18:49:03;16.15;62.49
65995;HTU21D;52764;51.036;5.852;2022-09-17T18:51:29;16.11;68.42
65995;HTU21D;52764;51.036;5.852;2022-09-17T18:53:56;16.13;62.47
65995;HTU21D;52764;51.036;5.852;2022-09-17T18:56:29;16.14;62.56
65995;HTU21D;52764;51.036;5.852;2022-09-17T18:58:57;16.16;62.53
65995;HTU21D;52764;51.036;5.852;2022-09-17T19:01:25;16.16;62.41
65995;HTU21D;52764;51.036;5.852;2022-09-17T19:03:53;16.16;62.05
65995;HTU21D;52764;51.036;5.852;2022-09-17T19:06:19;16.12;62.09
65995;HTU21D;52764;51.036;5.852;2022-09-17T19:08:44;16.10;62.12
65995;HTU21D;52764;51.036;5.852;2022-09-17T19:11:11;13.15;61.89
65995;HTU21D;52764;51.036;5.852;2022-09-17T19:13:43;16.10;61.93
65995;HTU21D;52764;51.036;5.852;2022-09-17T19:16:11;16.07;61.83
65995;HTU21D;52764;51.036;5.852;2022-09-17T19:18:38;16.02;61.89
65995;HTU21D;52764;51.036;5.852;2022-09-17T19:21:09;15.96;61.93
65995;HTU21D;52764;51.036;5.852;2022-09-17T19:23:40;12.85;62.44
65995;HTU21D;52764;51.036;5.852;2022-09-17T19:26:07;15.84;63.37